Aidablu — IBWX — position and weather

sailwx.info

Track history (hours):
 
Tides and Currents Weather Stations Pressure Air Temp Water Temp Dewpoint Dewpoint Depression Visibility Wind Speed Wind Dir Waves Ship Positions

Aidablu

Last reported at 2015-Jul-01 06:13 UTC. Time now 2015-Jul-01 15:15 UTC.
Position N 41°51' E 008°40'.

Length 252 m; draft 7.3 m.

Type: Ship. MMSI: 247282500.

Date/timePositionNaut miles runAvg speedWind from/ knotsBaromVisibWave heightAir tempDewpointWater temp
2015-Jul-01 06:13N 41°51' E 008°40'5 6.8
2015-Jul-01 05:33N 41°50' E 008°34'1312.6
2015-Jul-01 04:32N 42°01' E 008°25'1414.3
2015-Jul-01 03:33N 42°15' E 008°25'1414.0
2015-Jul-01 02:33N 42°29' E 008°29'1914.0
2015-Jul-01 01:11N 42°45' E 008°43'914.2
2015-Jul-01 00:34N 42°51' E 008°53'1614.9
2015-Jun-30 23:31N 43°01' E 009°09'1414.7
2015-Jun-30 22:34N 43°08' E 009°25'1414.2
2015-Jun-30 21:33N 43°14' E 009°43'8 7.9
2015-Jun-30 20:33N 43°18' E 009°53'8 7.5
2015-Jun-30 19:33N 43°21' E 010°02'8 7.5
2015-Jun-30 18:33N 43°27' E 010°08'7 7.1
2015-Jun-30 17:33N 43°32' E 010°15'2 2.1
2015-Jun-30 16:32N 43°33' E 010°18'0 0.0
2015-Jun-30 15:32N 43°33' E 010°18'0 0.0
2015-Jun-30 14:31N 43°33' E 010°18'0 0.0
2015-Jun-30 13:31N 43°33' E 010°18'0 0.0
2015-Jun-30 12:30N 43°33' E 010°18'0 0.0
2015-Jun-30 11:30N 43°33' E 010°18'0 0.0
2015-Jun-30 10:33N 43°33' E 010°18'0 0.0
2015-Jun-30 09:32N 43°33' E 010°18'0 0.0
2015-Jun-30 08:32N 43°33' E 010°18'0 0.0
2015-Jun-30 07:31N 43°33' E 010°18'0 0.0
2015-Jun-30 06:31N 43°33' E 010°18'0 0.0
2015-Jun-30 05:33N 43°33' E 010°18'5 4.5
2015-Jun-30 04:33N 43°30' E 010°14'8 7.8
2015-Jun-30 03:33N 43°22' E 010°11'1111.5
2015-Jun-30 02:34N 43°11' E 010°08'1414.3
2015-Jun-30 01:33N 42°57' E 010°04'1413.8
2015-Jun-30 00:32N 42°43' E 010°04'1414.7
2015-Jun-29 23:33N 42°34' E 010°19'1414.3
2015-Jun-29 22:33N 42°25' E 010°35'1414.3
2015-Jun-29 21:33N 42°16' E 010°49'1513.7
2015-Jun-29 20:29N 42°08' E 011°07'1314.3
2015-Jun-29 19:33N 42°07' E 011°24'1413.7
2015-Jun-29 18:32N 42°06' E 011°43'2 0.7
2015-Jun-29 15:23N 42°06' E 011°46'0 0.0
2015-Jun-29 14:16N 42°06' E 011°46'68 4.6
2015-Jun-28 23:28N 41°11' E 012°40'1314.3
2015-Jun-28 22:33N 41°05' E 012°56'1514.3
2015-Jun-28 21:32N 40°58' E 013°12'1414.4
2015-Jun-28 20:34N 40°52' E 013°29'1414.3
2015-Jun-28 19:34N 40°43' E 013°44'1413.7
2015-Jun-28 18:34N 40°39' E 014°01'1414.3
2015-Jun-28 17:33N 40°48' E 014°16'2 0.8
2015-Jun-28 14:21N 40°50' E 014°16'1 0.1
2015-Jun-28 05:10N 40°50' E 014°17'6 9.4
2015-Jun-28 04:33N 40°44' E 014°15'1414.2
2015-Jun-28 03:33N 40°31' E 014°07'1514.7
2015-Jun-28 02:33N 40°17' E 014°03'1514.8
2015-Jun-28 01:31N 40°02' E 013°59'1514.9
2015-Jun-28 00:32N 39°48' E 013°54'1515.2
2015-Jun-27 23:33N 39°33' E 013°50'4914.7
2015-Jun-27 20:14N 38°46' E 013°34'1014.8
2015-Jun-27 19:33N 38°36' E 013°34'1514.7
2015-Jun-27 18:33N 38°22' E 013°29'1413.7
2015-Jun-27 17:33N 38°08' E 013°26'3 2.8
2015-Jun-27 16:32N 38°08' E 013°22'0 0.0
2015-Jun-27 15:31N 38°08' E 013°22'0 0.0
2015-Jun-27 14:31N 38°08' E 013°22'0 0.0
2015-Jun-27 13:31N 38°08' E 013°22'0 0.0
2015-Jun-27 12:33N 38°08' E 013°22'0 0.0
2015-Jun-27 11:33N 38°08' E 013°22'0 0.0
2015-Jun-27 10:32N 38°08' E 013°22'0 0.0
2015-Jun-27 09:32N 38°08' E 013°22'0 0.0
2015-Jun-27 08:31N 38°08' E 013°22'0 0.0
2015-Jun-27 07:31N 38°08' E 013°22'3 3.4
2015-Jun-27 06:33N 38°11' E 013°24'1212.6
2015-Jun-27 05:34N 38°21' E 013°16'1515.1
2015-Jun-27 04:33N 38°31' E 013°01'1515.1
2015-Jun-27 03:33N 38°40' E 012°46'1615.0
2015-Jun-27 02:31N 38°52' E 012°32'1414.8
2015-Jun-27 01:34N 39°02' E 012°19'1914.7
2015-Jun-27 00:17N 39°15' E 012°02'1318.2
2015-Jun-26 23:33N 39°24' E 011°50'8018.1
2015-Jun-26 19:08N 40°21' E 010°36'1017.9
2015-Jun-26 18:33N 40°28' E 010°26'1818.1
2015-Jun-26 17:33N 40°41' E 010°09'1918.1
2015-Jun-26 16:31N 40°54' E 009°52'1412.8
2015-Jun-26 15:27N 40°55' E 009°34'2 1.9
2015-Jun-26 14:25N 40°55' E 009°31'0 0.0
2015-Jun-26 13:24N 40°55' E 009°31'0 0.0
2015-Jun-26 12:30N 40°55' E 009°31'0 0.0
2015-Jun-26 11:27N 40°55' E 009°31'0 0.0
2015-Jun-26 10:14N 40°55' E 009°31'14 1.8
2015-Jun-26 02:33N 41°07' E 009°42'39 7.2
2015-Jun-25 21:06N 41°17' E 008°51'5 8.4
2015-Jun-25 20:33N 41°16' E 008°45'8 8.3
2015-Jun-25 19:33N 41°16' E 008°34'1211.8
2015-Jun-25 18:33N 41°15' E 008°18'1414.2
2015-Jun-25 17:33N 41°09' E 008°02'1414.0
2015-Jun-25 16:32N 41°01' E 007°46'2311.3
2015-Jun-25 14:30N 40°50' E 007°19'1414.3
2015-Jun-25 13:33N 40°44' E 007°03'1414.5
2015-Jun-25 12:33N 40°37' E 006°47'1514.5
2015-Jun-25 11:33N 40°29' E 006°30'1414.1
2015-Jun-25 10:31N 40°22' E 006°13'9913.6
2015-Jun-25 03:14N 39°34' E 004°21'1113.5
2015-Jun-25 02:23N 39°28' E 004°08'1213.8
2015-Jun-25 01:31N 39°22' E 003°54'1313.8
2015-Jun-25 00:33N 39°16' E 003°40'1313.5
2015-Jun-24 23:33N 39°14' E 003°22'1514.4
2015-Jun-24 22:33N 39°14' E 003°04'1514.7
2015-Jun-24 21:33N 39°20' E 002°46'1413.6
2015-Jun-24 20:33N 39°32' E 002°39'1 1.4
2015-Jun-24 19:31N 39°33' E 002°38'0 0.0
2015-Jun-24 18:28N 39°33' E 002°38'0 0.0
2015-Jun-24 17:33N 39°33' E 002°38'0 0.0
2015-Jun-24 16:33N 39°33' E 002°38'0 0.0
2015-Jun-24 15:32N 39°33' E 002°38'0 0.0
2015-Jun-24 14:32N 39°33' E 002°38'0 0.0
2015-Jun-24 13:32N 39°33' E 002°38'0 0.0
2015-Jun-24 12:31N 39°33' E 002°38'0 0.0
2015-Jun-24 11:31N 39°33' E 002°38'0 0.0
2015-Jun-24 10:33N 39°33' E 002°38'0 0.0
2015-Jun-24 09:33N 39°33' E 002°38'0 0.0
2015-Jun-24 08:32N 39°33' E 002°38'0 0.0
2015-Jun-24 07:32N 39°33' E 002°38'0 0.0
2015-Jun-24 06:32N 39°33' E 002°38'0 0.0
2015-Jun-24 05:31N 39°33' E 002°38'0 0.0
2015-Jun-24 04:31N 39°33' E 002°38'0 0.0
2015-Jun-24 03:33N 39°33' E 002°38'0 0.0
2015-Jun-24 02:33N 39°33' E 002°38'5 5.1
2015-Jun-24 01:33N 39°29' E 002°35'1111.0
2015-Jun-24 00:34N 39°29' E 002°21'1412.8
2015-Jun-23 23:26N 39°42' E 002°14'1213.6
2015-Jun-23 22:33N 39°54' E 002°13'1414.3
2015-Jun-23 21:33N 40°08' E 002°13'1514.7
2015-Jun-23 20:33N 40°23' E 002°12'1414.4
2015-Jun-23 19:33N 40°37' E 002°12'714.4
2015-Jun-23 19:05N 40°44' E 002°12'88 3.7
2015-Jun-22 19:29N 41°25' E 003°55'9 7.2
2015-Jun-22 18:15N 41°26' E 004°06'7 6.7
2015-Jun-22 17:10N 41°27' E 004°16'4 6.7
2015-Jun-22 16:33N 41°28' E 004°21'14 7.0
2015-Jun-22 14:32N 41°29' E 004°40'7 7.3
2015-Jun-22 13:33N 41°30' E 004°49'7 6.9
2015-Jun-22 12:33N 41°31' E 004°59'6 6.0
2015-Jun-22 11:33N 41°32' E 005°07'6 6.1
2015-Jun-22 10:33N 41°32' E 005°15'22 6.8
2015-Jun-22 07:17N 41°35' E 005°45'27 6.9
2015-Jun-22 03:25N 41°38' E 006°20'6 7.0
2015-Jun-22 02:33N 41°39' E 006°28'  
Track history (hours):
 
Tides and Currents Weather Stations Pressure Air Temp Water Temp Dewpoint Dewpoint Depression Visibility Wind Speed Wind Dir Waves Ship Positions

Aidablu

Last reported at 2015-Jul-01 06:13 UTC. Time now 2015-Jul-01 15:15 UTC.
Position N 41°51' E 008°40'.

Length 252 m; draft 7.3 m.

Type: Ship. MMSI: 247282500.

Date/timePositionNaut miles runAvg speedWind from/ knotsBaromVisibWave heightAir tempDewpointWater temp
2015-Jul-01 06:13N 41°51' E 008°40'5 6.8
2015-Jul-01 05:33N 41°50' E 008°34'1312.6
2015-Jul-01 04:32N 42°01' E 008°25'1414.3
2015-Jul-01 03:33N 42°15' E 008°25'1414.0
2015-Jul-01 02:33N 42°29' E 008°29'1914.0
2015-Jul-01 01:11N 42°45' E 008°43'914.2
2015-Jul-01 00:34N 42°51' E 008°53'1614.9
2015-Jun-30 23:31N 43°01' E 009°09'1414.7
2015-Jun-30 22:34N 43°08' E 009°25'1414.2
2015-Jun-30 21:33N 43°14' E 009°43'8 7.9
2015-Jun-30 20:33N 43°18' E 009°53'8 7.5
2015-Jun-30 19:33N 43°21' E 010°02'8 7.5
2015-Jun-30 18:33N 43°27' E 010°08'7 7.1
2015-Jun-30 17:33N 43°32' E 010°15'2 2.1
2015-Jun-30 16:32N 43°33' E 010°18'0 0.0
2015-Jun-30 15:32N 43°33' E 010°18'0 0.0
2015-Jun-30 14:31N 43°33' E 010°18'0 0.0
2015-Jun-30 13:31N 43°33' E 010°18'0 0.0
2015-Jun-30 12:30N 43°33' E 010°18'0 0.0
2015-Jun-30 11:30N 43°33' E 010°18'0 0.0
2015-Jun-30 10:33N 43°33' E 010°18'0 0.0
2015-Jun-30 09:32N 43°33' E 010°18'0 0.0
2015-Jun-30 08:32N 43°33' E 010°18'0 0.0
2015-Jun-30 07:31N 43°33' E 010°18'0 0.0
2015-Jun-30 06:31N 43°33' E 010°18'0 0.0
2015-Jun-30 05:33N 43°33' E 010°18'5 4.5
2015-Jun-30 04:33N 43°30' E 010°14'8 7.8
2015-Jun-30 03:33N 43°22' E 010°11'1111.5
2015-Jun-30 02:34N 43°11' E 010°08'1414.3
2015-Jun-30 01:33N 42°57' E 010°04'1413.8
2015-Jun-30 00:32N 42°43' E 010°04'1414.7
2015-Jun-29 23:33N 42°34' E 010°19'1414.3
2015-Jun-29 22:33N 42°25' E 010°35'1414.3
2015-Jun-29 21:33N 42°16' E 010°49'1513.7
2015-Jun-29 20:29N 42°08' E 011°07'1314.3
2015-Jun-29 19:33N 42°07' E 011°24'1413.7
2015-Jun-29 18:32N 42°06' E 011°43'2 0.7
2015-Jun-29 15:23N 42°06' E 011°46'0 0.0
2015-Jun-29 14:16N 42°06' E 011°46'68 4.6
2015-Jun-28 23:28N 41°11' E 012°40'1314.3
2015-Jun-28 22:33N 41°05' E 012°56'1514.3
2015-Jun-28 21:32N 40°58' E 013°12'1414.4
2015-Jun-28 20:34N 40°52' E 013°29'1414.3
2015-Jun-28 19:34N 40°43' E 013°44'1413.7
2015-Jun-28 18:34N 40°39' E 014°01'1414.3
2015-Jun-28 17:33N 40°48' E 014°16'2 0.8
2015-Jun-28 14:21N 40°50' E 014°16'1 0.1
2015-Jun-28 05:10N 40°50' E 014°17'6 9.4
2015-Jun-28 04:33N 40°44' E 014°15'1414.2
2015-Jun-28 03:33N 40°31' E 014°07'1514.7
2015-Jun-28 02:33N 40°17' E 014°03'1514.8
2015-Jun-28 01:31N 40°02' E 013°59'1514.9
2015-Jun-28 00:32N 39°48' E 013°54'1515.2
2015-Jun-27 23:33N 39°33' E 013°50'4914.7
2015-Jun-27 20:14N 38°46' E 013°34'1014.8
2015-Jun-27 19:33N 38°36' E 013°34'1514.7
2015-Jun-27 18:33N 38°22' E 013°29'1413.7
2015-Jun-27 17:33N 38°08' E 013°26'3 2.8
2015-Jun-27 16:32N 38°08' E 013°22'0 0.0
2015-Jun-27 15:31N 38°08' E 013°22'0 0.0
2015-Jun-27 14:31N 38°08' E 013°22'0 0.0
2015-Jun-27 13:31N 38°08' E 013°22'0 0.0
2015-Jun-27 12:33N 38°08' E 013°22'0 0.0
2015-Jun-27 11:33N 38°08' E 013°22'0 0.0
2015-Jun-27 10:32N 38°08' E 013°22'0 0.0
2015-Jun-27 09:32N 38°08' E 013°22'0 0.0
2015-Jun-27 08:31N 38°08' E 013°22'0 0.0
2015-Jun-27 07:31N 38°08' E 013°22'3 3.4
2015-Jun-27 06:33N 38°11' E 013°24'1212.6
2015-Jun-27 05:34N 38°21' E 013°16'1515.1
2015-Jun-27 04:33N 38°31' E 013°01'1515.1
2015-Jun-27 03:33N 38°40' E 012°46'1615.0
2015-Jun-27 02:31N 38°52' E 012°32'1414.8
2015-Jun-27 01:34N 39°02' E 012°19'1914.7
2015-Jun-27 00:17N 39°15' E 012°02'1318.2
2015-Jun-26 23:33N 39°24' E 011°50'8018.1
2015-Jun-26 19:08N 40°21' E 010°36'1017.9
2015-Jun-26 18:33N 40°28' E 010°26'1818.1
2015-Jun-26 17:33N 40°41' E 010°09'1918.1
2015-Jun-26 16:31N 40°54' E 009°52'1412.8
2015-Jun-26 15:27N 40°55' E 009°34'2 1.9
2015-Jun-26 14:25N 40°55' E 009°31'0 0.0
2015-Jun-26 13:24N 40°55' E 009°31'0 0.0
2015-Jun-26 12:30N 40°55' E 009°31'0 0.0
2015-Jun-26 11:27N 40°55' E 009°31'0 0.0
2015-Jun-26 10:14N 40°55' E 009°31'14 1.8
2015-Jun-26 02:33N 41°07' E 009°42'39 7.2
2015-Jun-25 21:06N 41°17' E 008°51'5 8.4
2015-Jun-25 20:33N 41°16' E 008°45'8 8.3
2015-Jun-25 19:33N 41°16' E 008°34'1211.8
2015-Jun-25 18:33N 41°15' E 008°18'1414.2
2015-Jun-25 17:33N 41°09' E 008°02'1414.0
2015-Jun-25 16:32N 41°01' E 007°46'2311.3
2015-Jun-25 14:30N 40°50' E 007°19'1414.3
2015-Jun-25 13:33N 40°44' E 007°03'1414.5
2015-Jun-25 12:33N 40°37' E 006°47'1514.5
2015-Jun-25 11:33N 40°29' E 006°30'1414.1
2015-Jun-25 10:31N 40°22' E 006°13'9913.6
2015-Jun-25 03:14N 39°34' E 004°21'1113.5
2015-Jun-25 02:23N 39°28' E 004°08'1213.8
2015-Jun-25 01:31N 39°22' E 003°54'1313.8
2015-Jun-25 00:33N 39°16' E 003°40'1313.5
2015-Jun-24 23:33N 39°14' E 003°22'1514.4
2015-Jun-24 22:33N 39°14' E 003°04'1514.7
2015-Jun-24 21:33N 39°20' E 002°46'1413.6
2015-Jun-24 20:33N 39°32' E 002°39'1 1.4
2015-Jun-24 19:31N 39°33' E 002°38'0 0.0
2015-Jun-24 18:28N 39°33' E 002°38'0 0.0
2015-Jun-24 17:33N 39°33' E 002°38'0 0.0
2015-Jun-24 16:33N 39°33' E 002°38'0 0.0
2015-Jun-24 15:32N 39°33' E 002°38'0 0.0
2015-Jun-24 14:32N 39°33' E 002°38'0 0.0
2015-Jun-24 13:32N 39°33' E 002°38'0 0.0
2015-Jun-24 12:31N 39°33' E 002°38'0 0.0
2015-Jun-24 11:31N 39°33' E 002°38'0 0.0
2015-Jun-24 10:33N 39°33' E 002°38'0 0.0
2015-Jun-24 09:33N 39°33' E 002°38'0 0.0
2015-Jun-24 08:32N 39°33' E 002°38'0 0.0
2015-Jun-24 07:32N 39°33' E 002°38'0 0.0
2015-Jun-24 06:32N 39°33' E 002°38'0 0.0
2015-Jun-24 05:31N 39°33' E 002°38'0 0.0
2015-Jun-24 04:31N 39°33' E 002°38'0 0.0
2015-Jun-24 03:33N 39°33' E 002°38'0 0.0
2015-Jun-24 02:33N 39°33' E 002°38'5 5.1
2015-Jun-24 01:33N 39°29' E 002°35'1111.0
2015-Jun-24 00:34N 39°29' E 002°21'1412.8
2015-Jun-23 23:26N 39°42' E 002°14'1213.6
2015-Jun-23 22:33N 39°54' E 002°13'1414.3
2015-Jun-23 21:33N 40°08' E 002°13'1514.7
2015-Jun-23 20:33N 40°23' E 002°12'1414.4
2015-Jun-23 19:33N 40°37' E 002°12'714.4
2015-Jun-23 19:05N 40°44' E 002°12'88 3.7
2015-Jun-22 19:29N 41°25' E 003°55'9 7.2
2015-Jun-22 18:15N 41°26' E 004°06'7 6.7
2015-Jun-22 17:10N 41°27' E 004°16'4 6.7
2015-Jun-22 16:33N 41°28' E 004°21'14 7.0
2015-Jun-22 14:32N 41°29' E 004°40'7 7.3
2015-Jun-22 13:33N 41°30' E 004°49'7 6.9
2015-Jun-22 12:33N 41°31' E 004°59'6 6.0
2015-Jun-22 11:33N 41°32' E 005°07'6 6.1
2015-Jun-22 10:33N 41°32' E 005°15'22 6.8
2015-Jun-22 07:17N 41°35' E 005°45'27 6.9
2015-Jun-22 03:25N 41°38' E 006°20'6 7.0
2015-Jun-22 02:33N 41°39' E 006°28'  

Dump ship's entire track history